Time;durP1;ratioP1;P1;durP2;ratioP2;P2;SDS_P1;SDS_P2;PMS_P1;PMS_P2;Temp;Humidity;BMP_temperature;BMP_pressure;BME280_temperature;BME280_humidity;BME280_pressure;Samples;Min_cycle;Max_cycle;Signal;HPM_P1;HPM_P2
2023/09/05 00:00:13;;;;;;;5.10;2.92;;;;;;;;;;6213194;28;20324;-72
2023/09/05 00:03:18;;;;;;;4.10;2.90;;;;;;;;;;6213131;28;20300;-73
2023/09/05 00:06:24;;;;;;;5.53;2.97;;;;;;;;;;6212538;28;20309;-72
2023/09/05 00:09:29;;;;;;;4.28;2.92;;;;;;;;;;6213168;28;20308;-76
2023/09/05 00:12:33;;;;;;;2.80;2.63;;;;;;;;;;6213640;28;20305;-73
2023/09/05 00:15:37;;;;;;;2.83;2.63;;;;;;;;;;6212929;28;20482;-72
2023/09/05 00:18:40;;;;;;;5.03;2.80;;;;;;;;;;6213100;28;20565;-72
2023/09/05 00:21:44;;;;;;;3.97;3.30;;;;;;;;;;6213404;28;20301;-74
2023/09/05 00:24:49;;;;;;;3.83;2.67;;;;;;;;;;6212586;28;20542;-72
2023/09/05 00:27:53;;;;;;;6.40;2.97;;;;;;;;;;6212211;28;20479;-74
2023/09/05 00:30:57;;;;;;;9.05;2.85;;;;;;;;;;6212284;28;20581;-72
2023/09/05 00:34:00;;;;;;;2.65;2.45;;;;;;;;;;6212550;28;20600;-72
2023/09/05 00:37:06;;;;;;;2.75;2.50;;;;;;;;;;6211575;28;20328;-72
2023/09/05 00:40:12;;;;;;;5.78;2.63;;;;;;;;;;6211339;28;20297;-72
2023/09/05 00:43:17;;;;;;;3.10;2.83;;;;;;;;;;6212158;28;20297;-72
2023/09/05 00:46:21;;;;;;;2.95;2.72;;;;;;;;;;6212903;28;20301;-72
2023/09/05 00:49:27;;;;;;;6.13;2.88;;;;;;;;;;6210639;28;20305;-72
2023/09/05 00:52:32;;;;;;;3.70;2.50;;;;;;;;;;6211262;28;20301;-72
2023/09/05 00:55:37;;;;;;;2.70;2.50;;;;;;;;;;6212248;28;20392;-72
2023/09/05 00:58:41;;;;;;;3.22;2.45;;;;;;;;;;6210372;28;20716;-72
2023/09/05 01:01:45;;;;;;;8.05;2.55;;;;;;;;;;6224721;23;20285;-70
2023/09/05 01:04:49;;;;;;;2.40;2.30;;;;;;;;;;6231374;28;20280;-69
2023/09/05 01:08:00;;;;;;;3.05;2.10;;;;;;;;;;6236833;28;20348;-70
2023/09/05 01:11:08;;;;;;;4.43;2.45;;;;;;;;;;6236675;28;20304;-70
2023/09/05 01:14:13;;;;;;;4.40;1.95;;;;;;;;;;6187336;28;20400;-70
2023/09/05 01:17:17;;;;;;;5.05;2.30;;;;;;;;;;6204054;28;20287;-69
2023/09/05 01:20:21;;;;;;;3.13;2.30;;;;;;;;;;6215443;28;20313;-69
2023/09/05 01:23:31;;;;;;;3.90;2.50;;;;;;;;;;6236421;28;20308;-70
2023/09/05 01:26:37;;;;;;;6.80;2.10;;;;;;;;;;6236252;28;20309;-71
2023/09/05 01:29:41;;;;;;;2.45;2.25;;;;;;;;;;6236148;28;20308;-70
2023/09/05 01:32:46;;;;;;;7.00;2.33;;;;;;;;;;6235287;28;20308;-70
2023/09/05 01:35:50;;;;;;;3.38;2.65;;;;;;;;;;6236271;28;20308;-70
2023/09/05 01:38:54;;;;;;;2.35;2.25;;;;;;;;;;6234434;28;20308;-70
2023/09/05 01:41:59;;;;;;;3.13;2.20;;;;;;;;;;6235013;28;20300;-70
2023/09/05 01:45:05;;;;;;;4.00;2.20;;;;;;;;;;6235205;28;20296;-71
2023/09/05 01:48:09;;;;;;;2.47;2.03;;;;;;;;;;6235546;28;20375;-70
2023/09/05 01:51:13;;;;;;;2.30;2.20;;;;;;;;;;6234983;28;20300;-70
2023/09/05 01:54:16;;;;;;;2.20;2.00;;;;;;;;;;6235681;28;20296;-68
2023/09/05 01:57:23;;;;;;;2.10;2.00;;;;;;;;;;6236088;28;20309;-69
2023/09/05 02:00:27;;;;;;;4.80;2.60;;;;;;;;;;6235115;28;20296;-68
2023/09/05 02:03:31;;;;;;;5.07;2.10;;;;;;;;;;6233550;28;20449;-70
2023/09/05 02:06:35;;;;;;;2.85;2.35;;;;;;;;;;6235920;28;20292;-69
2023/09/05 02:09:38;;;;;;;2.90;2.17;;;;;;;;;;6233769;28;20567;-70
2023/09/05 02:12:46;;;;;;;2.97;2.13;;;;;;;;;;6234902;28;20312;-70
2023/09/05 02:15:49;;;;;;;2.28;2.17;;;;;;;;;;6233577;28;20292;-72
2023/09/05 02:18:53;;;;;;;2.60;2.38;;;;;;;;;;6234401;28;20300;-70
2023/09/05 02:21:57;;;;;;;2.67;2.47;;;;;;;;;;6234313;28;20291;-70
2023/09/05 02:25:01;;;;;;;2.92;2.40;;;;;;;;;;6235074;28;20592;-70
2023/09/05 02:28:06;;;;;;;2.30;2.20;;;;;;;;;;6234935;28;20296;-69
2023/09/05 02:31:10;;;;;;;2.67;2.25;;;;;;;;;;6235332;28;20305;-69
2023/09/05 02:34:14;;;;;;;2.40;2.22;;;;;;;;;;6233827;28;20592;-71
2023/09/05 02:37:19;;;;;;;2.33;2.22;;;;;;;;;;6235442;28;20303;-69
2023/09/05 02:40:23;;;;;;;2.83;2.65;;;;;;;;;;6234750;28;20300;-69
2023/09/05 02:43:28;;;;;;;2.25;2.15;;;;;;;;;;6233014;28;20296;-70
2023/09/05 02:46:32;;;;;;;2.67;2.47;;;;;;;;;;6235094;28;20311;-69
2023/09/05 02:49:36;;;;;;;3.00;2.50;;;;;;;;;;6234271;28;20508;-70
2023/09/05 02:52:40;;;;;;;1.98;1.90;;;;;;;;;;6234941;28;20284;-69
2023/09/05 02:55:50;;;;;;;6.63;2.33;;;;;;;;;;6234090;28;20296;-69
2023/09/05 02:58:55;;;;;;;2.13;2.05;;;;;;;;;;6233185;28;20376;-70
2023/09/05 03:01:59;;;;;;;2.38;2.28;;;;;;;;;;6223252;28;20592;-69
2023/09/05 03:05:03;;;;;;;2.42;2.22;;;;;;;;;;6230494;28;20292;-69
2023/09/05 03:08:07;;;;;;;3.88;2.17;;;;;;;;;;6232129;28;20296;-69
2023/09/05 03:11:11;;;;;;;2.25;2.15;;;;;;;;;;6234348;28;20291;-69
2023/09/05 03:14:16;;;;;;;3.70;2.30;;;;;;;;;;6232587;28;20495;-68
2023/09/05 03:17:20;;;;;;;2.97;2.13;;;;;;;;;;6232280;28;20319;-70
2023/09/05 03:20:25;;;;;;;2.28;2.22;;;;;;;;;;6233847;28;20264;-69
2023/09/05 03:23:29;;;;;;;4.07;2.60;;;;;;;;;;6232666;28;20296;-69
2023/09/05 03:26:33;;;;;;;2.63;2.45;;;;;;;;;;6233472;28;20484;-69
2023/09/05 03:29:39;;;;;;;3.90;1.90;;;;;;;;;;6232488;28;20296;-68
2023/09/05 03:32:43;;;;;;;2.15;2.15;;;;;;;;;;6232629;28;20309;-70
2023/09/05 03:35:47;;;;;;;2.50;2.30;;;;;;;;;;6233068;28;20288;-69
2023/09/05 03:38:51;;;;;;;5.95;2.55;;;;;;;;;;6233185;28;20293;-70
2023/09/05 03:41:54;;;;;;;2.25;2.22;;;;;;;;;;6233517;28;20300;-70
2023/09/05 03:45:01;;;;;;;6.85;2.38;;;;;;;;;;6234510;28;20572;-70
2023/09/05 03:48:05;;;;;;;3.53;2.10;;;;;;;;;;6233392;28;20297;-71
2023/09/05 03:51:09;;;;;;;3.67;2.42;;;;;;;;;;6234720;28;20316;-68
2023/09/05 03:54:13;;;;;;;3.97;2.20;;;;;;;;;;6232527;28;20329;-68
2023/09/05 03:57:17;;;;;;;4.32;2.67;;;;;;;;;;6234043;28;20483;-72
2023/09/05 04:00:22;;;;;;;4.18;2.53;;;;;;;;;;6234192;28;20296;-69
2023/09/05 04:03:26;;;;;;;2.67;2.55;;;;;;;;;;6232747;28;20296;-69
2023/09/05 04:06:31;;;;;;;6.03;2.47;;;;;;;;;;6235202;28;20604;-69
2023/09/05 04:09:35;;;;;;;2.33;2.33;;;;;;;;;;6234153;28;20304;-69
2023/09/05 04:12:39;;;;;;;2.40;2.05;;;;;;;;;;6233338;28;20397;-70
2023/09/05 04:15:44;;;;;;;3.33;2.42;;;;;;;;;;6233636;28;20292;-70
2023/09/05 04:18:48;;;;;;;3.15;2.65;;;;;;;;;;6233401;28;20293;-70
2023/09/05 04:21:51;;;;;;;4.70;2.50;;;;;;;;;;6232420;28;20307;-69
2023/09/05 04:24:56;;;;;;;3.50;2.50;;;;;;;;;;6232082;28;20304;-69
2023/09/05 04:28:00;;;;;;;2.83;2.58;;;;;;;;;;6233065;28;20569;-70
2023/09/05 04:31:06;;;;;;;4.30;2.60;;;;;;;;;;6233438;28;20443;-69
2023/09/05 04:34:10;;;;;;;4.07;2.35;;;;;;;;;;6233325;28;20301;-69
2023/09/05 04:37:17;;;;;;;6.32;2.67;;;;;;;;;;6235208;28;20300;-69
2023/09/05 04:40:22;;;;;;;3.83;2.33;;;;;;;;;;6235318;28;20300;-69
2023/09/05 04:43:26;;;;;;;2.70;2.50;;;;;;;;;;6236555;28;20304;-69
2023/09/05 04:46:37;;;;;;;3.50;2.40;;;;;;;;;;6238115;28;20497;-69
2023/09/05 04:49:42;;;;;;;3.30;2.72;;;;;;;;;;6237272;28;20308;-70
2023/09/05 04:52:45;;;;;;;3.42;2.60;;;;;;;;;;6237290;28;20304;-69
2023/09/05 04:55:51;;;;;;;2.42;2.28;;;;;;;;;;6237721;28;20288;-70
2023/09/05 04:58:55;;;;;;;8.10;2.75;;;;;;;;;;6235785;28;20300;-71
2023/09/05 05:02:00;;;;;;;2.97;2.78;;;;;;;;;;6237280;28;20407;-68
2023/09/05 05:05:05;;;;;;;2.70;2.40;;;;;;;;;;6237170;28;20300;-69
2023/09/05 05:08:09;;;;;;;3.38;2.70;;;;;;;;;;6237043;28;20295;-70
2023/09/05 05:11:12;;;;;;;2.55;2.45;;;;;;;;;;6235903;28;20304;-68
2023/09/05 05:14:16;;;;;;;3.75;3.42;;;;;;;;;;6211409;28;20305;-69
2023/09/05 05:17:21;;;;;;;2.78;2.65;;;;;;;;;;6211618;28;20245;-69
2023/09/05 05:20:25;;;;;;;2.45;2.25;;;;;;;;;;6211887;28;20308;-69
2023/09/05 05:23:29;;;;;;;3.40;2.60;;;;;;;;;;6211734;28;20289;-69
2023/09/05 05:26:33;;;;;;;2.58;2.38;;;;;;;;;;6212589;28;20315;-68
2023/09/05 05:29:36;;;;;;;5.35;2.47;;;;;;;;;;6188358;28;20297;-69
2023/09/05 05:32:41;;;;;;;2.72;2.53;;;;;;;;;;6187488;28;20383;-70
2023/09/05 05:35:45;;;;;;;3.03;2.72;;;;;;;;;;6188155;28;20305;-69
2023/09/05 05:38:49;;;;;;;4.03;2.80;;;;;;;;;;6187069;28;20389;-70
2023/09/05 05:41:53;;;;;;;2.80;2.60;;;;;;;;;;6187663;28;20301;-68
2023/09/05 05:44:57;;;;;;;4.25;2.72;;;;;;;;;;6187606;28;20285;-69
2023/09/05 05:48:02;;;;;;;3.28;2.60;;;;;;;;;;6186572;28;20497;-69
2023/09/05 05:51:06;;;;;;;6.03;2.40;;;;;;;;;;6187299;28;20338;-69
2023/09/05 05:54:10;;;;;;;3.92;2.50;;;;;;;;;;6187195;28;20297;-70
2023/09/05 05:57:14;;;;;;;2.70;2.50;;;;;;;;;;6187450;28;20505;-69
2023/09/05 06:00:19;;;;;;;5.78;2.90;;;;;;;;;;6186932;28;20492;-69
2023/09/05 06:03:24;;;;;;;2.85;2.55;;;;;;;;;;6186595;28;20460;-70
2023/09/05 06:06:28;;;;;;;2.83;2.63;;;;;;;;;;6187149;28;20353;-70
2023/09/05 06:09:32;;;;;;;3.53;2.60;;;;;;;;;;6188704;28;20301;-69
2023/09/05 06:12:37;;;;;;;6.57;2.78;;;;;;;;;;6234956;28;20304;-70
2023/09/05 06:15:41;;;;;;;4.97;2.60;;;;;;;;;;6235627;28;20288;-69
2023/09/05 06:18:46;;;;;;;3.03;2.75;;;;;;;;;;6235465;28;20467;-69
2023/09/05 06:21:51;;;;;;;2.78;2.58;;;;;;;;;;6235655;28;20304;-69
2023/09/05 06:24:55;;;;;;;5.63;2.67;;;;;;;;;;6235172;28;20301;-69
2023/09/05 06:27:59;;;;;;;6.38;2.80;;;;;;;;;;6234835;28;20292;-71
2023/09/05 06:31:02;;;;;;;4.40;2.70;;;;;;;;;;6235534;28;20316;-70
2023/09/05 06:34:08;;;;;;;2.88;2.40;;;;;;;;;;6235423;28;20304;-70
2023/09/05 06:37:11;;;;;;;4.07;2.50;;;;;;;;;;6235216;28;20299;-70
2023/09/05 06:40:15;;;;;;;6.82;2.60;;;;;;;;;;6234330;28;20321;-70
2023/09/05 06:43:19;;;;;;;5.85;2.58;;;;;;;;;;6234799;28;20296;-70
2023/09/05 06:46:23;;;;;;;3.95;2.50;;;;;;;;;;6235115;28;20296;-71
2023/09/05 06:49:28;;;;;;;4.03;2.70;;;;;;;;;;6234576;28;20304;-70
2023/09/05 06:52:32;;;;;;;4.25;2.60;;;;;;;;;;6234321;28;20308;-72
2023/09/05 06:55:35;;;;;;;9.35;2.50;;;;;;;;;;6234813;28;20296;-71
2023/09/05 06:58:39;;;;;;;3.63;2.42;;;;;;;;;;6234161;28;20292;-70
2023/09/05 07:01:43;;;;;;;2.40;2.25;;;;;;;;;;6234469;28;20332;-70
2023/09/05 07:04:49;;;;;;;3.40;2.58;;;;;;;;;;6234456;28;20331;-70
2023/09/05 07:07:54;;;;;;;2.80;2.58;;;;;;;;;;6233221;28;20316;-70
2023/09/05 07:10:58;;;;;;;9.95;2.50;;;;;;;;;;6234642;28;20284;-70
2023/09/05 07:14:02;;;;;;;2.38;2.28;;;;;;;;;;6234151;28;20304;-70
2023/09/05 07:17:07;;;;;;;7.60;2.60;;;;;;;;;;6233826;28;20272;-70
2023/09/05 07:20:12;;;;;;;3.97;2.88;;;;;;;;;;6234266;28;20304;-69
2023/09/05 07:23:16;;;;;;;3.40;2.50;;;;;;;;;;6233757;28;20304;-70
2023/09/05 07:26:20;;;;;;;4.47;2.13;;;;;;;;;;6234356;28;20267;-69
2023/09/05 07:29:26;;;;;;;8.40;2.63;;;;;;;;;;6233810;28;20300;-70
2023/09/05 07:32:29;;;;;;;3.10;2.50;;;;;;;;;;6232725;28;20308;-69
2023/09/05 07:35:36;;;;;;;2.85;2.65;;;;;;;;;;6235171;28;20292;-69
2023/09/05 07:38:40;;;;;;;4.00;2.42;;;;;;;;;;6233424;28;20300;-70
2023/09/05 07:41:43;;;;;;;4.15;2.60;;;;;;;;;;6234213;28;20561;-69
2023/09/05 07:44:47;;;;;;;2.80;2.65;;;;;;;;;;6233514;28;20379;-71
2023/09/05 07:47:51;;;;;;;3.15;2.95;;;;;;;;;;6233573;28;20296;-71
2023/09/05 07:51:01;;;;;;;3.92;2.78;;;;;;;;;;6234036;28;20440;-70
2023/09/05 07:54:07;;;;;;;5.63;2.92;;;;;;;;;;6233175;28;20296;-71
2023/09/05 07:57:11;;;;;;;3.53;2.60;;;;;;;;;;6231250;28;20354;-71
2023/09/05 08:00:16;;;;;;;4.55;2.80;;;;;;;;;;6232556;28;20331;-69
2023/09/05 08:03:20;;;;;;;4.15;2.80;;;;;;;;;;6233281;28;20300;-70
2023/09/05 08:06:26;;;;;;;4.30;2.63;;;;;;;;;;6233891;28;20307;-70
2023/09/05 08:09:29;;;;;;;5.00;2.50;;;;;;;;;;6233160;28;20300;-70
2023/09/05 08:12:33;;;;;;;2.78;2.53;;;;;;;;;;6236171;28;20300;-70
2023/09/05 08:15:38;;;;;;;3.58;2.50;;;;;;;;;;6238566;28;20296;-70
2023/09/05 08:18:42;;;;;;;3.42;2.70;;;;;;;;;;6237934;28;20654;-69
2023/09/05 08:21:47;;;;;;;3.22;2.92;;;;;;;;;;6237192;28;20308;-70
2023/09/05 08:24:52;;;;;;;2.78;2.42;;;;;;;;;;6238308;28;20300;-70
2023/09/05 08:27:56;;;;;;;4.43;3.03;;;;;;;;;;6237190;28;20292;-72
2023/09/05 08:31:02;;;;;;;5.20;2.92;;;;;;;;;;6237302;28;20439;-70
2023/09/05 08:34:08;;;;;;;2.63;2.42;;;;;;;;;;6237852;28;20300;-70
2023/09/05 08:37:14;;;;;;;4.72;2.83;;;;;;;;;;6238369;28;20301;-70
2023/09/05 08:40:18;;;;;;;4.82;2.70;;;;;;;;;;6237616;28;20297;-71
2023/09/05 08:43:22;;;;;;;7.35;2.88;;;;;;;;;;6237626;28;20596;-71
2023/09/05 08:46:27;;;;;;;4.03;2.80;;;;;;;;;;6238067;28;20292;-70
2023/09/05 08:49:31;;;;;;;2.67;2.58;;;;;;;;;;6237309;28;20616;-70
2023/09/05 08:52:39;;;;;;;2.60;2.40;;;;;;;;;;6236976;28;20324;-71
2023/09/05 08:55:43;;;;;;;3.13;2.63;;;;;;;;;;6237781;28;20293;-70
2023/09/05 08:58:47;;;;;;;3.55;2.85;;;;;;;;;;6237152;28;20546;-70
2023/09/05 09:01:51;;;;;;;4.45;2.70;;;;;;;;;;6236290;28;20296;-71
2023/09/05 09:04:58;;;;;;;2.50;2.40;;;;;;;;;;6236953;28;20288;-69
2023/09/05 09:08:03;;;;;;;2.88;2.50;;;;;;;;;;6237116;28;20487;-69
2023/09/05 09:11:08;;;;;;;2.45;2.38;;;;;;;;;;6236502;28;20282;-69
2023/09/05 09:14:12;;;;;;;10.27;3.30;;;;;;;;;;6236755;28;20308;-69
2023/09/05 09:17:16;;;;;;;5.75;2.85;;;;;;;;;;6237264;28;20249;-70
2023/09/05 09:20:23;;;;;;;5.15;2.75;;;;;;;;;;6237525;28;20304;-69
2023/09/05 09:23:29;;;;;;;5.35;2.50;;;;;;;;;;6235912;28;20317;-70
2023/09/05 09:26:33;;;;;;;4.80;3.13;;;;;;;;;;6237365;28;20301;-69
2023/09/05 09:29:40;;;;;;;2.92;2.70;;;;;;;;;;6236672;28;20295;-72
2023/09/05 09:32:50;;;;;;;3.03;2.83;;;;;;;;;;6236274;28;20283;-69
2023/09/05 09:36:13;;;;;;;2.50;2.40;;;;;;;;;;6235428;28;20300;-70
2023/09/05 09:39:19;;;;;;;3.75;2.55;;;;;;;;;;6236283;28;20301;-70
2023/09/05 09:42:23;;;;;;;5.30;2.90;;;;;;;;;;6234920;28;20335;-70
2023/09/05 09:45:27;;;;;;;2.83;2.70;;;;;;;;;;6236419;28;20474;-69
2023/09/05 09:48:34;;;;;;;3.03;2.70;;;;;;;;;;6235696;28;20336;-69
2023/09/05 09:51:38;;;;;;;7.22;2.78;;;;;;;;;;6236476;28;20292;-69
2023/09/05 09:54:45;;;;;;;3.13;2.80;;;;;;;;;;6235746;28;20296;-68
2023/09/05 09:57:56;;;;;;;3.33;2.47;;;;;;;;;;6234423;28;20309;-69
2023/09/05 10:01:01;;;;;;;2.83;2.60;;;;;;;;;;6236401;28;20465;-70
2023/09/05 10:04:05;;;;;;;3.10;2.78;;;;;;;;;;6235194;28;20303;-69
2023/09/05 10:07:14;;;;;;;5.60;2.58;;;;;;;;;;6235945;28;20292;-69
2023/09/05 10:10:21;;;;;;;9.90;3.20;;;;;;;;;;6235612;28;20292;-69
2023/09/05 10:13:27;;;;;;;5.78;2.50;;;;;;;;;;6236496;28;20476;-69
2023/09/05 10:16:31;;;;;;;5.10;2.80;;;;;;;;;;6234421;28;20301;-69
2023/09/05 10:19:35;;;;;;;4.88;2.33;;;;;;;;;;6234905;28;20307;-69
2023/09/05 10:22:40;;;;;;;3.58;2.70;;;;;;;;;;6235299;28;20296;-70
2023/09/05 10:25:46;;;;;;;2.72;2.53;;;;;;;;;;6235930;28;20313;-70
2023/09/05 10:28:56;;;;;;;3.45;3.15;;;;;;;;;;6234906;28;20309;-69
2023/09/05 10:32:00;;;;;;;2.80;2.60;;;;;;;;;;6235890;28;20304;-69
2023/09/05 10:35:04;;;;;;;7.10;2.55;;;;;;;;;;6202224;28;20313;-69
2023/09/05 10:38:08;;;;;;;3.97;2.67;;;;;;;;;;6185672;28;20340;-69
2023/09/05 10:41:36;;;;;;;3.05;2.38;;;;;;;;;;6187025;28;20234;-70
2023/09/05 10:44:41;;;;;;;4.68;2.88;;;;;;;;;;6186382;28;20474;-71
2023/09/05 10:47:45;;;;;;;2.70;2.50;;;;;;;;;;6186567;28;20301;-70
2023/09/05 10:51:13;;;;;;;3.05;2.58;;;;;;;;;;6186542;28;20302;-69
2023/09/05 10:54:30;;;;;;;3.83;2.58;;;;;;;;;;6182570;28;20305;-70
2023/09/05 10:57:37;;;;;;;3.22;2.40;;;;;;;;;;6185316;28;20297;-71
2023/09/05 11:00:41;;;;;;;3.80;2.40;;;;;;;;;;6186629;28;20298;-69
2023/09/05 11:03:46;;;;;;;3.13;2.40;;;;;;;;;;6185503;28;20301;-68
2023/09/05 11:07:03;;;;;;;8.07;2.63;;;;;;;;;;6186551;28;20301;-70
2023/09/05 11:10:11;;;;;;;4.68;2.60;;;;;;;;;;6197987;28;20316;-72
2023/09/05 11:13:17;;;;;;;4.20;2.70;;;;;;;;;;6234514;28;20300;-69
2023/09/05 11:16:21;;;;;;;6.50;2.92;;;;;;;;;;6234636;28;20296;-69
2023/09/05 11:19:35;;;;;;;7.35;2.40;;;;;;;;;;6234542;28;20304;-70
2023/09/05 11:22:39;;;;;;;4.65;2.75;;;;;;;;;;6235030;28;20300;-70
2023/09/05 11:25:46;;;;;;;3.30;2.40;;;;;;;;;;6234839;28;20332;-73
2023/09/05 11:28:51;;;;;;;4.55;2.83;;;;;;;;;;6235197;28;20296;-70
2023/09/05 11:31:59;;;;;;;3.38;2.60;;;;;;;;;;6237895;28;20299;-69
2023/09/05 11:35:04;;;;;;;4.97;2.50;;;;;;;;;;6236836;28;20303;-69
2023/09/05 11:38:08;;;;;;;11.05;2.30;;;;;;;;;;6236131;28;20321;-69
2023/09/05 11:41:12;;;;;;;7.75;2.50;;;;;;;;;;6237049;28;20261;-70
2023/09/05 11:44:17;;;;;;;4.43;2.70;;;;;;;;;;6236210;28;20542;-71
2023/09/05 11:47:22;;;;;;;3.15;2.55;;;;;;;;;;6239352;28;20253;-71
2023/09/05 11:50:27;;;;;;;3.90;2.22;;;;;;;;;;6241517;28;20301;-69
2023/09/05 11:53:30;;;;;;;3.42;2.40;;;;;;;;;;6242689;28;20344;-70
2023/09/05 11:56:35;;;;;;;4.00;2.60;;;;;;;;;;6241772;28;20299;-68
2023/09/05 11:59:40;;;;;;;5.55;2.70;;;;;;;;;;6243262;28;20309;-67
2023/09/05 12:02:45;;;;;;;6.15;2.78;;;;;;;;;;6240861;28;20303;-69
2023/09/05 12:05:51;;;;;;;2.83;2.50;;;;;;;;;;6241002;28;20377;-70
2023/09/05 12:08:55;;;;;;;2.78;2.58;;;;;;;;;;6240220;28;20296;-71
2023/09/05 12:12:13;;;;;;;3.90;2.45;;;;;;;;;;6239833;28;20423;-69
2023/09/05 12:15:28;;;;;;;5.00;2.50;;;;;;;;;;6240387;28;20472;-70
2023/09/05 12:18:32;;;;;;;4.35;2.33;;;;;;;;;;6241108;28;20297;-68
2023/09/05 12:21:40;;;;;;;4.45;2.40;;;;;;;;;;6242695;28;20584;-69
2023/09/05 12:24:44;;;;;;;2.50;2.30;;;;;;;;;;6241047;28;20305;-70
2023/09/05 12:27:54;;;;;;;5.68;2.63;;;;;;;;;;6241103;28;20557;-68
2023/09/05 12:31:07;;;;;;;4.18;3.00;;;;;;;;;;6242052;28;20296;-70
2023/09/05 12:34:11;;;;;;;3.10;2.55;;;;;;;;;;6240254;28;20297;-69
2023/09/05 12:37:15;;;;;;;4.10;2.55;;;;;;;;;;6238895;28;20466;-70
2023/09/05 12:40:19;;;;;;;3.17;2.70;;;;;;;;;;6237676;28;20300;-70
2023/09/05 12:43:23;;;;;;;2.92;2.55;;;;;;;;;;6237213;28;20460;-71
2023/09/05 12:46:30;;;;;;;10.35;2.28;;;;;;;;;;6236931;28;20304;-70
2023/09/05 12:49:33;;;;;;;2.60;2.50;;;;;;;;;;6237584;28;20301;-70
2023/09/05 12:52:37;;;;;;;2.33;2.22;;;;;;;;;;6236973;28;20311;-70
2023/09/05 12:55:43;;;;;;;3.03;2.38;;;;;;;;;;6238283;28;20585;-68
2023/09/05 12:58:47;;;;;;;3.08;2.45;;;;;;;;;;6236500;28;20304;-70
2023/09/05 13:01:53;;;;;;;3.15;2.60;;;;;;;;;;6237534;28;20297;-70
2023/09/05 13:04:57;;;;;;;6.32;2.33;;;;;;;;;;6236914;28;20572;-70
2023/09/05 13:08:01;;;;;;;3.72;2.50;;;;;;;;;;6238575;28;20296;-70
2023/09/05 13:11:06;;;;;;;9.65;2.83;;;;;;;;;;6238416;28;20268;-70
2023/09/05 13:14:09;;;;;;;43.60;5.05;;;;;;;;;;6236998;28;20300;-70
2023/09/05 13:17:17;;;;;;;5.55;2.20;;;;;;;;;;6237082;28;20264;-69
2023/09/05 13:20:21;;;;;;;2.88;2.60;;;;;;;;;;6235447;28;20432;-72
2023/09/05 13:23:25;;;;;;;3.15;2.45;;;;;;;;;;6237018;28;20299;-70
2023/09/05 13:26:29;;;;;;;7.05;2.58;;;;;;;;;;6236318;28;20319;-70
2023/09/05 13:29:33;;;;;;;4.03;2.60;;;;;;;;;;6235514;28;20506;-70
2023/09/05 13:32:38;;;;;;;5.15;2.97;;;;;;;;;;6236460;28;20292;-70
2023/09/05 13:35:42;;;;;;;6.35;2.75;;;;;;;;;;6237020;28;20296;-70
2023/09/05 13:38:45;;;;;;;2.30;2.25;;;;;;;;;;6236554;28;20288;-70
2023/09/05 13:41:49;;;;;;;8.55;2.40;;;;;;;;;;6236945;28;20309;-69
2023/09/05 13:44:53;;;;;;;2.95;2.75;;;;;;;;;;6235940;28;20400;-70
2023/09/05 13:47:59;;;;;;;2.50;2.40;;;;;;;;;;6236301;28;20308;-69
2023/09/05 13:51:04;;;;;;;3.85;2.80;;;;;;;;;;6235415;28;20369;-70
2023/09/05 13:54:08;;;;;;;3.45;2.50;;;;;;;;;;6235351;28;20296;-71
2023/09/05 13:57:12;;;;;;;4.68;2.90;;;;;;;;;;6236548;28;20470;-70
2023/09/05 14:00:18;;;;;;;2.83;2.60;;;;;;;;;;6236214;28;20288;-72
2023/09/05 14:03:24;;;;;;;3.90;2.63;;;;;;;;;;6235308;28;20292;-72
2023/09/05 14:06:28;;;;;;;3.30;2.40;;;;;;;;;;6235956;28;20300;-70
2023/09/05 14:09:33;;;;;;;3.10;2.47;;;;;;;;;;6234574;28;20292;-71
2023/09/05 14:12:38;;;;;;;11.40;2.40;;;;;;;;;;6235208;28;20301;-70
2023/09/05 14:15:41;;;;;;;6.93;2.53;;;;;;;;;;6235708;28;20508;-70
2023/09/05 14:18:47;;;;;;;2.60;2.40;;;;;;;;;;6234885;28;20319;-70
2023/09/05 14:21:51;;;;;;;3.80;2.67;;;;;;;;;;6235502;28;20297;-70
2023/09/05 14:24:55;;;;;;;2.60;2.33;;;;;;;;;;6234563;28;20497;-70
2023/09/05 14:27:59;;;;;;;3.85;2.60;;;;;;;;;;6234933;28;20300;-72
2023/09/05 14:31:03;;;;;;;3.78;2.65;;;;;;;;;;6235776;28;20294;-69
2023/09/05 14:34:08;;;;;;;2.72;2.53;;;;;;;;;;6234822;28;20376;-70
2023/09/05 14:37:13;;;;;;;6.43;2.45;;;;;;;;;;6235745;28;20299;-70
2023/09/05 14:40:17;;;;;;;5.10;2.47;;;;;;;;;;6234726;28;20304;-69
2023/09/05 14:43:23;;;;;;;7.45;2.50;;;;;;;;;;6234993;28;20365;-70
2023/09/05 14:46:27;;;;;;;6.55;2.63;;;;;;;;;;6235274;28;20316;-70
2023/09/05 14:49:33;;;;;;;5.20;2.67;;;;;;;;;;6234822;28;20379;-69
2023/09/05 14:52:37;;;;;;;3.28;2.45;;;;;;;;;;6234718;28;20288;-69
2023/09/05 14:55:41;;;;;;;4.55;2.33;;;;;;;;;;6234548;28;20324;-69
2023/09/05 14:58:45;;;;;;;5.03;2.70;;;;;;;;;;6234710;28;20432;-70
2023/09/05 15:01:49;;;;;;;4.53;2.58;;;;;;;;;;6235511;28;20299;-69
2023/09/05 15:04:54;;;;;;;7.32;2.70;;;;;;;;;;6234924;28;20304;-70
2023/09/05 15:07:58;;;;;;;3.60;2.85;;;;;;;;;;6234747;28;20300;-72
2023/09/05 15:11:02;;;;;;;5.85;3.10;;;;;;;;;;6234982;28;20292;-70
2023/09/05 15:14:05;;;;;;;12.75;2.78;;;;;;;;;;6233676;28;20304;-69
2023/09/05 15:17:09;;;;;;;8.18;3.08;;;;;;;;;;6233697;28;20288;-70
2023/09/05 15:20:15;;;;;;;3.63;2.92;;;;;;;;;;6233488;28;20300;-71
2023/09/05 15:23:19;;;;;;;5.90;2.90;;;;;;;;;;6234363;28;20300;-71
2023/09/05 15:26:23;;;;;;;4.60;2.70;;;;;;;;;;6234359;28;20240;-70
2023/09/05 15:29:27;;;;;;;3.40;3.10;;;;;;;;;;6234171;28;20309;-71
2023/09/05 15:32:31;;;;;;;26.20;11.63;;;;;;;;;;6233762;28;20304;-70
2023/09/05 15:35:36;;;;;;;5.97;3.42;;;;;;;;;;6234680;28;20289;-70
2023/09/05 15:38:40;;;;;;;5.60;3.10;;;;;;;;;;6233382;28;20347;-70
2023/09/05 15:41:43;;;;;;;7.65;2.72;;;;;;;;;;6234454;28;20486;-70
2023/09/05 15:44:47;;;;;;;4.43;3.30;;;;;;;;;;6233167;28;20292;-70
2023/09/05 15:47:51;;;;;;;7.82;3.25;;;;;;;;;;6232162;28;20288;-70
2023/09/05 15:50:57;;;;;;;2.95;2.72;;;;;;;;;;6234042;28;20247;-70
2023/09/05 15:54:00;;;;;;;3.40;2.83;;;;;;;;;;6232588;28;20328;-70
2023/09/05 15:57:05;;;;;;;8.18;2.97;;;;;;;;;;6234295;28;20576;-70
2023/09/05 16:00:09;;;;;;;4.90;3.40;;;;;;;;;;6233729;28;20287;-70
2023/09/05 16:03:19;;;;;;;5.32;3.47;;;;;;;;;;6233334;28;20296;-70
2023/09/05 16:06:24;;;;;;;5.18;3.35;;;;;;;;;;6233437;28;20296;-70
2023/09/05 16:09:28;;;;;;;9.15;3.22;;;;;;;;;;6233717;28;20309;-70
2023/09/05 16:12:32;;;;;;;6.63;3.13;;;;;;;;;;6233030;28;20299;-71
2023/09/05 16:15:36;;;;;;;10.05;3.65;;;;;;;;;;6234036;28;20288;-71
2023/09/05 16:18:40;;;;;;;6.93;3.58;;;;;;;;;;6232245;28;20323;-70
2023/09/05 16:21:46;;;;;;;6.30;3.20;;;;;;;;;;6233855;28;20348;-71
2023/09/05 16:24:50;;;;;;;4.03;3.30;;;;;;;;;;6233939;28;20307;-70
2023/09/05 16:27:54;;;;;;;10.85;3.95;;;;;;;;;;6233604;28;20292;-72
2023/09/05 16:30:58;;;;;;;6.97;3.85;;;;;;;;;;6233888;28;20304;-71
2023/09/05 16:34:02;;;;;;;9.80;3.67;;;;;;;;;;6237306;28;20299;-70
2023/09/05 16:37:07;;;;;;;4.32;3.22;;;;;;;;;;6238280;28;20311;-69
2023/09/05 16:40:12;;;;;;;3.45;3.25;;;;;;;;;;6242881;28;20307;-69
2023/09/05 16:43:16;;;;;;;4.20;2.92;;;;;;;;;;6236492;28;20297;-70
2023/09/05 16:46:20;;;;;;;6.53;3.42;;;;;;;;;;6238047;28;20292;-71
2023/09/05 16:49:23;;;;;;;6.88;3.50;;;;;;;;;;6237684;28;20304;-70
2023/09/05 16:52:28;;;;;;;6.15;3.83;;;;;;;;;;6236915;28;20305;-70
2023/09/05 16:55:36;;;;;;;7.72;3.28;;;;;;;;;;6238301;28;20293;-69
2023/09/05 16:58:40;;;;;;;3.80;3.45;;;;;;;;;;6237320;28;20561;-70
2023/09/05 17:01:44;;;;;;;4.88;3.65;;;;;;;;;;6237469;28;20380;-70
2023/09/05 17:04:48;;;;;;;4.78;3.22;;;;;;;;;;6237940;28;20295;-70
2023/09/05 17:07:53;;;;;;;4.03;3.40;;;;;;;;;;6236629;28;20510;-70
2023/09/05 17:10:57;;;;;;;6.53;3.53;;;;;;;;;;6237515;28;20319;-71
2023/09/05 17:14:01;;;;;;;6.97;3.67;;;;;;;;;;6236944;28;20304;-70
2023/09/05 17:17:06;;;;;;;10.68;4.05;;;;;;;;;;6236692;28;20312;-72
2023/09/05 17:20:10;;;;;;;8.85;4.13;;;;;;;;;;6236781;28;20600;-71
2023/09/05 17:23:15;;;;;;;6.65;4.03;;;;;;;;;;6237428;28;20304;-70
2023/09/05 17:26:19;;;;;;;9.70;5.63;;;;;;;;;;6237536;28;20256;-69
2023/09/05 17:29:23;;;;;;;7.80;4.95;;;;;;;;;;6235986;28;20414;-70
2023/09/05 17:32:28;;;;;;;11.40;4.93;;;;;;;;;;6237008;28;20432;-70
2023/09/05 17:35:34;;;;;;;13.70;5.22;;;;;;;;;;6237204;28;20552;-69
2023/09/05 17:38:40;;;;;;;8.02;4.60;;;;;;;;;;6236303;28;20292;-71
2023/09/05 17:41:44;;;;;;;4.00;3.38;;;;;;;;;;6236738;28;20300;-70
2023/09/05 17:44:47;;;;;;;6.63;2.58;;;;;;;;;;6235937;28;20296;-70
2023/09/05 17:47:51;;;;;;;2.55;2.00;;;;;;;;;;6236407;28;20296;-69
2023/09/05 17:50:56;;;;;;;5.90;2.42;;;;;;;;;;6237391;28;20307;-70
2023/09/05 17:54:03;;;;;;;6.68;2.50;;;;;;;;;;6236788;28;20303;-71
2023/09/05 17:57:07;;;;;;;2.40;2.15;;;;;;;;;;6237060;28;20480;-71
2023/09/05 18:00:12;;;;;;;3.15;2.35;;;;;;;;;;6236872;28;20316;-69
2023/09/05 18:03:16;;;;;;;2.58;2.10;;;;;;;;;;6236683;28;20561;-71
2023/09/05 18:06:20;;;;;;;3.20;1.70;;;;;;;;;;6236692;28;20304;-70
2023/09/05 18:09:25;;;;;;;4.03;2.08;;;;;;;;;;6236584;28;20435;-70
2023/09/05 18:12:29;;;;;;;1.92;1.83;;;;;;;;;;6229944;28;20491;-70
2023/09/05 18:15:33;;;;;;;1.60;1.50;;;;;;;;;;6235166;28;20589;-72
2023/09/05 18:18:37;;;;;;;2.67;1.95;;;;;;;;;;6235358;28;20303;-71
2023/09/05 18:21:43;;;;;;;1.85;1.75;;;;;;;;;;6235945;28;20297;-70
2023/09/05 18:24:49;;;;;;;1.98;1.63;;;;;;;;;;6235869;28;20295;-70
2023/09/05 18:27:52;;;;;;;3.17;2.00;;;;;;;;;;6234162;28;20315;-71